sensor_id;sensor_type;location;lat;lon;timestamp;P1;durP1;ratioP1;P2;durP2;ratioP2
64467;SDS011;50853;46.836;16.820;2022-07-22T00:01:40;5.28;;;2.60;;
64467;SDS011;50853;46.836;16.820;2022-07-22T00:04:06;8.48;;;2.65;;
64467;SDS011;50853;46.836;16.820;2022-07-22T00:06:32;3.53;;;2.25;;
64467;SDS011;50853;46.836;16.820;2022-07-22T00:08:58;6.88;;;2.72;;
64467;SDS011;50853;46.836;16.820;2022-07-22T00:11:24;5.15;;;2.85;;
64467;SDS011;50853;46.836;16.820;2022-07-22T00:13:50;7.68;;;2.50;;
64467;SDS011;50853;46.836;16.820;2022-07-22T00:16:16;5.43;;;3.00;;
64467;SDS011;50853;46.836;16.820;2022-07-22T00:18:42;10.18;;;2.38;;
64467;SDS011;50853;46.836;16.820;2022-07-22T00:21:08;6.23;;;3.13;;
64467;SDS011;50853;46.836;16.820;2022-07-22T00:23:34;6.40;;;2.28;;
64467;SDS011;50853;46.836;16.820;2022-07-22T00:26:00;4.65;;;2.45;;
64467;SDS011;50853;46.836;16.820;2022-07-22T00:28:26;6.13;;;2.70;;
64467;SDS011;50853;46.836;16.820;2022-07-22T00:30:52;6.82;;;2.42;;
64467;SDS011;50853;46.836;16.820;2022-07-22T00:33:17;5.38;;;2.50;;
64467;SDS011;50853;46.836;16.820;2022-07-22T00:35:43;8.27;;;2.83;;
64467;SDS011;50853;46.836;16.820;2022-07-22T00:38:09;6.70;;;3.00;;
64467;SDS011;50853;46.836;16.820;2022-07-22T00:40:35;4.50;;;2.88;;
64467;SDS011;50853;46.836;16.820;2022-07-22T00:43:01;6.47;;;3.30;;
64467;SDS011;50853;46.836;16.820;2022-07-22T00:45:27;6.28;;;3.17;;
64467;SDS011;50853;46.836;16.820;2022-07-22T00:47:53;8.82;;;3.08;;
64467;SDS011;50853;46.836;16.820;2022-07-22T00:50:18;6.72;;;3.00;;
64467;SDS011;50853;46.836;16.820;2022-07-22T00:55:12;4.93;;;2.85;;
64467;SDS011;50853;46.836;16.820;2022-07-22T00:57:39;6.88;;;3.22;;
64467;SDS011;50853;46.836;16.820;2022-07-22T01:00:06;4.10;;;3.27;;
64467;SDS011;50853;46.836;16.820;2022-07-22T01:02:34;7.78;;;3.40;;
64467;SDS011;50853;46.836;16.820;2022-07-22T01:05:00;5.00;;;3.15;;
64467;SDS011;50853;46.836;16.820;2022-07-22T01:07:26;10.43;;;3.88;;
64467;SDS011;50853;46.836;16.820;2022-07-22T01:09:52;10.82;;;3.58;;
64467;SDS011;50853;46.836;16.820;2022-07-22T01:12:18;4.30;;;3.05;;
64467;SDS011;50853;46.836;16.820;2022-07-22T01:14:44;8.65;;;3.85;;
64467;SDS011;50853;46.836;16.820;2022-07-22T01:17:09;10.32;;;3.63;;
64467;SDS011;50853;46.836;16.820;2022-07-22T01:19:36;8.05;;;3.83;;
64467;SDS011;50853;46.836;16.820;2022-07-22T01:22:03;8.60;;;3.55;;
64467;SDS011;50853;46.836;16.820;2022-07-22T01:24:32;5.88;;;3.40;;
64467;SDS011;50853;46.836;16.820;2022-07-22T01:26:58;6.78;;;3.67;;
64467;SDS011;50853;46.836;16.820;2022-07-22T01:29:24;8.20;;;4.05;;
64467;SDS011;50853;46.836;16.820;2022-07-22T01:31:50;7.55;;;4.28;;
64467;SDS011;50853;46.836;16.820;2022-07-22T01:34:16;6.67;;;3.73;;
64467;SDS011;50853;46.836;16.820;2022-07-22T01:36:42;10.52;;;4.25;;
64467;SDS011;50853;46.836;16.820;2022-07-22T01:39:08;6.55;;;3.58;;
64467;SDS011;50853;46.836;16.820;2022-07-22T01:41:34;13.70;;;4.22;;
64467;SDS011;50853;46.836;16.820;2022-07-22T01:44:00;6.60;;;3.97;;
64467;SDS011;50853;46.836;16.820;2022-07-22T01:46:26;6.78;;;4.47;;
64467;SDS011;50853;46.836;16.820;2022-07-22T01:48:52;7.20;;;4.10;;
64467;SDS011;50853;46.836;16.820;2022-07-22T01:51:19;16.87;;;4.40;;
64467;SDS011;50853;46.836;16.820;2022-07-22T01:53:45;7.57;;;4.10;;
64467;SDS011;50853;46.836;16.820;2022-07-22T01:56:11;9.80;;;4.65;;
64467;SDS011;50853;46.836;16.820;2022-07-22T01:58:37;4.97;;;4.20;;
64467;SDS011;50853;46.836;16.820;2022-07-22T02:01:03;12.02;;;4.50;;
64467;SDS011;50853;46.836;16.820;2022-07-22T02:03:29;7.57;;;4.35;;
64467;SDS011;50853;46.836;16.820;2022-07-22T02:05:55;6.80;;;3.97;;
64467;SDS011;50853;46.836;16.820;2022-07-22T02:08:21;5.82;;;4.20;;
64467;SDS011;50853;46.836;16.820;2022-07-22T02:10:47;9.27;;;4.23;;
64467;SDS011;50853;46.836;16.820;2022-07-22T02:13:13;6.70;;;4.57;;
64467;SDS011;50853;46.836;16.820;2022-07-22T02:15:39;10.27;;;4.70;;
64467;SDS011;50853;46.836;16.820;2022-07-22T02:18:38;9.82;;;4.20;;
64467;SDS011;50853;46.836;16.820;2022-07-22T02:20:57;7.38;;;4.35;;
64467;SDS011;50853;46.836;16.820;2022-07-22T02:23:23;5.57;;;4.30;;
64467;SDS011;50853;46.836;16.820;2022-07-22T02:25:49;6.55;;;4.00;;
64467;SDS011;50853;46.836;16.820;2022-07-22T02:28:15;7.05;;;4.75;;
64467;SDS011;50853;46.836;16.820;2022-07-22T02:30:41;6.28;;;4.50;;
64467;SDS011;50853;46.836;16.820;2022-07-22T02:33:07;8.88;;;4.80;;
64467;SDS011;50853;46.836;16.820;2022-07-22T02:35:33;6.63;;;4.22;;
64467;SDS011;50853;46.836;16.820;2022-07-22T02:37:59;7.82;;;4.50;;
64467;SDS011;50853;46.836;16.820;2022-07-22T02:40:25;7.43;;;4.13;;
64467;SDS011;50853;46.836;16.820;2022-07-22T02:42:51;11.00;;;4.45;;
64467;SDS011;50853;46.836;16.820;2022-07-22T02:45:18;8.27;;;4.15;;
64467;SDS011;50853;46.836;16.820;2022-07-22T02:47:47;7.80;;;4.60;;
64467;SDS011;50853;46.836;16.820;2022-07-22T02:50:18;7.72;;;4.45;;
64467;SDS011;50853;46.836;16.820;2022-07-22T02:52:44;9.30;;;4.53;;
64467;SDS011;50853;46.836;16.820;2022-07-22T02:55:10;7.72;;;4.70;;
64467;SDS011;50853;46.836;16.820;2022-07-22T02:57:36;9.77;;;4.25;;
64467;SDS011;50853;46.836;16.820;2022-07-22T03:00:04;8.77;;;4.43;;
64467;SDS011;50853;46.836;16.820;2022-07-22T03:02:32;7.70;;;4.28;;
64467;SDS011;50853;46.836;16.820;2022-07-22T03:04:58;9.25;;;4.38;;
64467;SDS011;50853;46.836;16.820;2022-07-22T03:07:23;5.55;;;4.10;;
64467;SDS011;50853;46.836;16.820;2022-07-22T03:09:52;7.90;;;5.32;;
64467;SDS011;50853;46.836;16.820;2022-07-22T03:12:18;6.22;;;4.82;;
64467;SDS011;50853;46.836;16.820;2022-07-22T03:14:44;12.05;;;4.90;;
64467;SDS011;50853;46.836;16.820;2022-07-22T03:17:10;7.43;;;4.53;;
64467;SDS011;50853;46.836;16.820;2022-07-22T03:19:36;6.18;;;4.20;;
64467;SDS011;50853;46.836;16.820;2022-07-22T03:22:02;9.40;;;5.13;;
64467;SDS011;50853;46.836;16.820;2022-07-22T03:24:27;6.30;;;4.82;;
64467;SDS011;50853;46.836;16.820;2022-07-22T03:26:53;13.48;;;4.78;;
64467;SDS011;50853;46.836;16.820;2022-07-22T03:29:19;10.05;;;5.25;;
64467;SDS011;50853;46.836;16.820;2022-07-22T03:31:45;8.38;;;4.90;;
64467;SDS011;50853;46.836;16.820;2022-07-22T03:34:11;8.90;;;5.30;;
64467;SDS011;50853;46.836;16.820;2022-07-22T03:36:36;9.25;;;5.30;;
64467;SDS011;50853;46.836;16.820;2022-07-22T03:39:02;9.88;;;5.28;;
64467;SDS011;50853;46.836;16.820;2022-07-22T03:41:28;11.27;;;4.88;;
64467;SDS011;50853;46.836;16.820;2022-07-22T03:43:54;6.95;;;5.40;;
64467;SDS011;50853;46.836;16.820;2022-07-22T03:46:20;9.82;;;5.05;;
64467;SDS011;50853;46.836;16.820;2022-07-22T03:48:45;13.95;;;5.30;;
64467;SDS011;50853;46.836;16.820;2022-07-22T03:51:11;11.35;;;4.90;;
64467;SDS011;50853;46.836;16.820;2022-07-22T03:53:37;10.15;;;4.93;;
64467;SDS011;50853;46.836;16.820;2022-07-22T03:56:03;11.18;;;5.45;;
64467;SDS011;50853;46.836;16.820;2022-07-22T03:58:29;8.80;;;5.20;;
64467;SDS011;50853;46.836;16.820;2022-07-22T04:00:55;13.70;;;5.50;;
64467;SDS011;50853;46.836;16.820;2022-07-22T04:03:20;9.75;;;5.10;;
64467;SDS011;50853;46.836;16.820;2022-07-22T04:05:46;9.05;;;5.40;;
64467;SDS011;50853;46.836;16.820;2022-07-22T04:08:12;7.72;;;5.00;;
64467;SDS011;50853;46.836;16.820;2022-07-22T04:10:38;6.47;;;4.90;;
64467;SDS011;50853;46.836;16.820;2022-07-22T04:13:04;10.30;;;5.20;;
64467;SDS011;50853;46.836;16.820;2022-07-22T04:15:30;9.10;;;4.88;;
64467;SDS011;50853;46.836;16.820;2022-07-22T04:17:56;7.82;;;4.97;;
64467;SDS011;50853;46.836;16.820;2022-07-22T04:20:22;9.48;;;5.38;;
64467;SDS011;50853;46.836;16.820;2022-07-22T04:22:48;16.98;;;5.95;;
64467;SDS011;50853;46.836;16.820;2022-07-22T04:25:13;7.43;;;4.82;;
64467;SDS011;50853;46.836;16.820;2022-07-22T04:27:39;9.07;;;5.32;;
64467;SDS011;50853;46.836;16.820;2022-07-22T04:30:06;10.90;;;5.30;;
64467;SDS011;50853;46.836;16.820;2022-07-22T04:32:32;7.88;;;5.10;;
64467;SDS011;50853;46.836;16.820;2022-07-22T04:34:58;8.68;;;4.57;;
64467;SDS011;50853;46.836;16.820;2022-07-22T04:37:24;7.82;;;5.22;;
64467;SDS011;50853;46.836;16.820;2022-07-22T04:39:50;7.50;;;5.13;;
64467;SDS011;50853;46.836;16.820;2022-07-22T04:42:16;10.48;;;4.80;;
64467;SDS011;50853;46.836;16.820;2022-07-22T04:44:41;9.85;;;4.68;;
64467;SDS011;50853;46.836;16.820;2022-07-22T04:47:09;12.40;;;5.43;;
64467;SDS011;50853;46.836;16.820;2022-07-22T04:49:35;10.40;;;5.17;;
64467;SDS011;50853;46.836;16.820;2022-07-22T04:52:01;10.35;;;5.38;;
64467;SDS011;50853;46.836;16.820;2022-07-22T04:54:28;10.10;;;5.57;;
64467;SDS011;50853;46.836;16.820;2022-07-22T04:56:54;14.10;;;5.60;;
64467;SDS011;50853;46.836;16.820;2022-07-22T04:59:19;14.25;;;5.28;;
64467;SDS011;50853;46.836;16.820;2022-07-22T05:01:45;7.45;;;4.65;;
64467;SDS011;50853;46.836;16.820;2022-07-22T05:04:11;6.97;;;4.93;;
64467;SDS011;50853;46.836;16.820;2022-07-22T05:06:37;8.27;;;4.78;;
64467;SDS011;50853;46.836;16.820;2022-07-22T05:09:03;16.10;;;4.93;;
64467;SDS011;50853;46.836;16.820;2022-07-22T05:11:29;9.20;;;5.28;;
64467;SDS011;50853;46.836;16.820;2022-07-22T05:13:55;12.48;;;5.05;;
64467;SDS011;50853;46.836;16.820;2022-07-22T05:16:20;11.70;;;5.00;;
64467;SDS011;50853;46.836;16.820;2022-07-22T05:18:46;10.50;;;5.72;;
64467;SDS011;50853;46.836;16.820;2022-07-22T05:21:12;5.60;;;4.63;;
64467;SDS011;50853;46.836;16.820;2022-07-22T05:23:38;9.98;;;5.05;;
64467;SDS011;50853;46.836;16.820;2022-07-22T05:26:04;8.50;;;4.97;;
64467;SDS011;50853;46.836;16.820;2022-07-22T05:28:30;6.45;;;4.80;;
64467;SDS011;50853;46.836;16.820;2022-07-22T05:30:56;9.27;;;5.27;;
64467;SDS011;50853;46.836;16.820;2022-07-22T05:33:22;9.15;;;5.00;;
64467;SDS011;50853;46.836;16.820;2022-07-22T05:35:47;10.75;;;4.75;;
64467;SDS011;50853;46.836;16.820;2022-07-22T05:38:13;6.40;;;4.73;;
64467;SDS011;50853;46.836;16.820;2022-07-22T05:40:39;18.27;;;4.90;;
64467;SDS011;50853;46.836;16.820;2022-07-22T05:43:05;13.27;;;4.60;;
64467;SDS011;50853;46.836;16.820;2022-07-22T05:45:31;14.13;;;5.30;;
64467;SDS011;50853;46.836;16.820;2022-07-22T05:47:57;8.02;;;4.82;;
64467;SDS011;50853;46.836;16.820;2022-07-22T05:50:23;8.17;;;4.77;;
64467;SDS011;50853;46.836;16.820;2022-07-22T05:52:48;9.27;;;4.57;;
64467;SDS011;50853;46.836;16.820;2022-07-22T05:55:14;6.93;;;4.63;;
64467;SDS011;50853;46.836;16.820;2022-07-22T05:57:40;8.30;;;4.90;;
64467;SDS011;50853;46.836;16.820;2022-07-22T06:00:06;10.90;;;4.70;;
64467;SDS011;50853;46.836;16.820;2022-07-22T06:02:32;8.68;;;4.50;;
64467;SDS011;50853;46.836;16.820;2022-07-22T06:04:58;16.17;;;4.70;;
64467;SDS011;50853;46.836;16.820;2022-07-22T06:07:26;7.88;;;4.57;;
64467;SDS011;50853;46.836;16.820;2022-07-22T06:09:52;8.38;;;4.82;;
64467;SDS011;50853;46.836;16.820;2022-07-22T06:12:18;8.35;;;4.35;;
64467;SDS011;50853;46.836;16.820;2022-07-22T06:14:44;10.90;;;4.53;;
64467;SDS011;50853;46.836;16.820;2022-07-22T06:17:11;9.68;;;4.75;;
64467;SDS011;50853;46.836;16.820;2022-07-22T06:19:37;6.85;;;4.00;;
64467;SDS011;50853;46.836;16.820;2022-07-22T06:22:03;9.95;;;4.50;;
64467;SDS011;50853;46.836;16.820;2022-07-22T06:24:29;12.45;;;4.95;;
64467;SDS011;50853;46.836;16.820;2022-07-22T06:26:55;6.33;;;4.47;;
64467;SDS011;50853;46.836;16.820;2022-07-22T06:29:21;6.27;;;3.87;;
64467;SDS011;50853;46.836;16.820;2022-07-22T06:31:47;5.93;;;3.87;;
64467;SDS011;50853;46.836;16.820;2022-07-22T06:34:13;6.20;;;4.10;;
64467;SDS011;50853;46.836;16.820;2022-07-22T06:36:38;13.63;;;4.27;;
64467;SDS011;50853;46.836;16.820;2022-07-22T06:39:04;11.93;;;4.00;;
64467;SDS011;50853;46.836;16.820;2022-07-22T06:41:30;8.83;;;4.23;;
64467;SDS011;50853;46.836;16.820;2022-07-22T06:43:56;11.00;;;4.57;;
64467;SDS011;50853;46.836;16.820;2022-07-22T06:46:21;10.50;;;4.13;;
64467;SDS011;50853;46.836;16.820;2022-07-22T06:48:47;9.93;;;4.17;;
64467;SDS011;50853;46.836;16.820;2022-07-22T06:51:13;8.77;;;4.43;;
64467;SDS011;50853;46.836;16.820;2022-07-22T06:53:40;10.05;;;4.70;;
64467;SDS011;50853;46.836;16.820;2022-07-22T06:56:06;14.00;;;4.50;;
64467;SDS011;50853;46.836;16.820;2022-07-22T06:58:32;7.35;;;4.00;;
64467;SDS011;50853;46.836;16.820;2022-07-22T07:00:58;12.38;;;4.32;;
64467;SDS011;50853;46.836;16.820;2022-07-22T07:03:24;7.53;;;4.13;;
64467;SDS011;50853;46.836;16.820;2022-07-22T07:05:53;6.90;;;4.10;;
64467;SDS011;50853;46.836;16.820;2022-07-22T07:08:19;11.93;;;4.00;;
64467;SDS011;50853;46.836;16.820;2022-07-22T07:10:45;10.93;;;4.10;;
64467;SDS011;50853;46.836;16.820;2022-07-22T07:13:11;5.55;;;4.05;;
64467;SDS011;50853;46.836;16.820;2022-07-22T07:15:36;6.73;;;4.63;;
64467;SDS011;50853;46.836;16.820;2022-07-22T07:18:02;5.13;;;3.63;;
64467;SDS011;50853;46.836;16.820;2022-07-22T07:20:28;7.22;;;4.20;;
64467;SDS011;50853;46.836;16.820;2022-07-22T07:22:54;11.00;;;3.97;;
64467;SDS011;50853;46.836;16.820;2022-07-22T07:25:20;7.28;;;3.80;;
64467;SDS011;50853;46.836;16.820;2022-07-22T07:27:46;6.15;;;3.95;;
64467;SDS011;50853;46.836;16.820;2022-07-22T07:30:12;8.77;;;3.83;;
64467;SDS011;50853;46.836;16.820;2022-07-22T07:32:38;5.03;;;3.92;;
64467;SDS011;50853;46.836;16.820;2022-07-22T07:35:04;9.02;;;4.13;;
64467;SDS011;50853;46.836;16.820;2022-07-22T07:37:31;5.85;;;3.40;;
64467;SDS011;50853;46.836;16.820;2022-07-22T07:39:57;9.93;;;4.35;;
64467;SDS011;50853;46.836;16.820;2022-07-22T07:42:23;11.18;;;4.15;;
64467;SDS011;50853;46.836;16.820;2022-07-22T07:44:49;8.98;;;3.65;;
64467;SDS011;50853;46.836;16.820;2022-07-22T07:47:15;7.03;;;3.92;;
64467;SDS011;50853;46.836;16.820;2022-07-22T07:49:44;7.72;;;4.32;;
64467;SDS011;50853;46.836;16.820;2022-07-22T07:54:37;8.98;;;3.58;;
64467;SDS011;50853;46.836;16.820;2022-07-22T07:57:05;4.35;;;3.30;;
64467;SDS011;50853;46.836;16.820;2022-07-22T07:59:32;5.60;;;3.30;;
64467;SDS011;50853;46.836;16.820;2022-07-22T08:01:57;6.05;;;3.88;;
64467;SDS011;50853;46.836;16.820;2022-07-22T08:04:23;9.80;;;3.88;;
64467;SDS011;50853;46.836;16.820;2022-07-22T08:06:50;5.78;;;3.72;;
64467;SDS011;50853;46.836;16.820;2022-07-22T08:09:16;8.63;;;3.40;;
64467;SDS011;50853;46.836;16.820;2022-07-22T08:11:41;6.22;;;3.47;;
64467;SDS011;50853;46.836;16.820;2022-07-22T08:14:07;11.02;;;3.63;;
64467;SDS011;50853;46.836;16.820;2022-07-22T08:16:33;12.00;;;3.97;;
64467;SDS011;50853;46.836;16.820;2022-07-22T08:18:59;9.10;;;3.70;;
64467;SDS011;50853;46.836;16.820;2022-07-22T08:21:25;5.18;;;3.60;;
64467;SDS011;50853;46.836;16.820;2022-07-22T08:35:58;5.93;;;3.23;;
64467;SDS011;50853;46.836;16.820;2022-07-22T08:38:23;7.25;;;3.17;;
64467;SDS011;50853;46.836;16.820;2022-07-22T08:40:49;5.95;;;3.50;;
64467;SDS011;50853;46.836;16.820;2022-07-22T08:43:18;4.50;;;3.10;;
64467;SDS011;50853;46.836;16.820;2022-07-22T08:45:44;5.93;;;3.58;;
64467;SDS011;50853;46.836;16.820;2022-07-22T08:48:11;6.93;;;3.80;;
64467;SDS011;50853;46.836;16.820;2022-07-22T08:50:37;5.55;;;3.40;;
64467;SDS011;50853;46.836;16.820;2022-07-22T08:53:03;6.20;;;3.67;;
64467;SDS011;50853;46.836;16.820;2022-07-22T08:55:30;6.75;;;3.45;;
64467;SDS011;50853;46.836;16.820;2022-07-22T08:57:56;6.43;;;3.38;;
64467;SDS011;50853;46.836;16.820;2022-07-22T09:00:22;5.00;;;3.20;;
64467;SDS011;50853;46.836;16.820;2022-07-22T09:02:48;9.90;;;3.63;;
64467;SDS011;50853;46.836;16.820;2022-07-22T09:07:41;6.13;;;3.40;;
64467;SDS011;50853;46.836;16.820;2022-07-22T09:10:10;13.55;;;3.58;;
64467;SDS011;50853;46.836;16.820;2022-07-22T09:12:50;6.85;;;3.63;;
64467;SDS011;50853;46.836;16.820;2022-07-22T09:15:29;5.38;;;3.05;;
64467;SDS011;50853;46.836;16.820;2022-07-22T09:17:57;4.00;;;3.30;;
64467;SDS011;50853;46.836;16.820;2022-07-22T09:20:25;5.15;;;3.47;;
64467;SDS011;50853;46.836;16.820;2022-07-22T09:22:52;9.45;;;3.58;;
64467;SDS011;50853;46.836;16.820;2022-07-22T09:25:19;6.30;;;3.53;;
64467;SDS011;50853;46.836;16.820;2022-07-22T09:27:54;5.75;;;3.13;;
64467;SDS011;50853;46.836;16.820;2022-07-22T09:30:38;9.48;;;3.60;;
64467;SDS011;50853;46.836;16.820;2022-07-22T09:33:07;7.55;;;3.38;;
64467;SDS011;50853;46.836;16.820;2022-07-22T09:35:33;7.07;;;3.70;;
64467;SDS011;50853;46.836;16.820;2022-07-22T09:38:00;5.28;;;3.20;;
64467;SDS011;50853;46.836;16.820;2022-07-22T09:40:29;6.40;;;3.35;;
64467;SDS011;50853;46.836;16.820;2022-07-22T09:42:58;5.35;;;3.38;;
64467;SDS011;50853;46.836;16.820;2022-07-22T09:45:27;5.80;;;3.22;;
64467;SDS011;50853;46.836;16.820;2022-07-22T09:47:55;6.30;;;3.30;;
64467;SDS011;50853;46.836;16.820;2022-07-22T09:50:29;9.02;;;3.20;;
64467;SDS011;50853;46.836;16.820;2022-07-22T09:52:57;6.82;;;3.47;;
64467;SDS011;50853;46.836;16.820;2022-07-22T09:55:25;13.80;;;4.18;;
64467;SDS011;50853;46.836;16.820;2022-07-22T09:57:53;4.45;;;3.10;;
64467;SDS011;50853;46.836;16.820;2022-07-22T10:00:22;4.55;;;3.20;;
64467;SDS011;50853;46.836;16.820;2022-07-22T10:02:51;6.47;;;3.40;;
64467;SDS011;50853;46.836;16.820;2022-07-22T10:05:20;12.02;;;3.60;;
64467;SDS011;50853;46.836;16.820;2022-07-22T10:07:50;8.30;;;4.05;;
64467;SDS011;50853;46.836;16.820;2022-07-22T10:10:19;8.57;;;3.78;;
64467;SDS011;50853;46.836;16.820;2022-07-22T10:12:50;6.80;;;3.25;;
64467;SDS011;50853;46.836;16.820;2022-07-22T10:15:17;5.03;;;3.47;;
64467;SDS011;50853;46.836;16.820;2022-07-22T10:17:48;5.72;;;3.63;;
64467;SDS011;50853;46.836;16.820;2022-07-22T10:20:20;6.47;;;3.50;;
64467;SDS011;50853;46.836;16.820;2022-07-22T10:22:51;8.57;;;3.60;;
64467;SDS011;50853;46.836;16.820;2022-07-22T10:25:19;6.90;;;3.70;;
64467;SDS011;50853;46.836;16.820;2022-07-22T10:27:49;8.05;;;3.90;;
64467;SDS011;50853;46.836;16.820;2022-07-22T10:30:22;7.13;;;3.70;;
64467;SDS011;50853;46.836;16.820;2022-07-22T10:35:35;5.03;;;3.22;;
64467;SDS011;50853;46.836;16.820;2022-07-22T10:38:04;5.82;;;3.42;;
64467;SDS011;50853;46.836;16.820;2022-07-22T10:40:44;4.60;;;3.47;;
64467;SDS011;50853;46.836;16.820;2022-07-22T10:43:13;6.40;;;3.28;;
64467;SDS011;50853;46.836;16.820;2022-07-22T10:45:41;5.20;;;2.97;;
64467;SDS011;50853;46.836;16.820;2022-07-22T10:48:17;9.25;;;3.97;;
64467;SDS011;50853;46.836;16.820;2022-07-22T10:50:53;4.43;;;3.28;;
64467;SDS011;50853;46.836;16.820;2022-07-22T10:58:44;9.77;;;4.28;;
64467;SDS011;50853;46.836;16.820;2022-07-22T11:01:14;8.70;;;3.35;;
64467;SDS011;50853;46.836;16.820;2022-07-22T11:03:43;6.90;;;3.42;;
64467;SDS011;50853;46.836;16.820;2022-07-22T11:06:17;7.97;;;3.55;;
64467;SDS011;50853;46.836;16.820;2022-07-22T11:09:03;10.23;;;3.50;;
64467;SDS011;50853;46.836;16.820;2022-07-22T11:11:34;8.50;;;3.65;;
64467;SDS011;50853;46.836;16.820;2022-07-22T11:14:08;6.00;;;3.70;;
64467;SDS011;50853;46.836;16.820;2022-07-22T11:16:36;6.15;;;3.50;;
64467;SDS011;50853;46.836;16.820;2022-07-22T11:19:02;7.60;;;3.85;;
64467;SDS011;50853;46.836;16.820;2022-07-22T11:21:29;7.35;;;3.47;;
64467;SDS011;50853;46.836;16.820;2022-07-22T11:23:57;9.07;;;3.67;;
64467;SDS011;50853;46.836;16.820;2022-07-22T11:29:10;12.95;;;3.22;;
64467;SDS011;50853;46.836;16.820;2022-07-22T11:31:58;12.13;;;3.40;;
64467;SDS011;50853;46.836;16.820;2022-07-22T11:34:25;10.20;;;3.17;;
64467;SDS011;50853;46.836;16.820;2022-07-22T11:36:52;6.60;;;3.28;;
64467;SDS011;50853;46.836;16.820;2022-07-22T11:39:28;5.80;;;3.22;;
64467;SDS011;50853;46.836;16.820;2022-07-22T11:41:56;8.00;;;3.17;;
64467;SDS011;50853;46.836;16.820;2022-07-22T11:44:25;10.25;;;3.65;;
64467;SDS011;50853;46.836;16.820;2022-07-22T11:46:52;4.55;;;2.70;;
64467;SDS011;50853;46.836;16.820;2022-07-22T11:49:23;7.18;;;3.55;;
64467;SDS011;50853;46.836;16.820;2022-07-22T11:51:50;5.43;;;3.08;;
64467;SDS011;50853;46.836;16.820;2022-07-22T11:54:16;7.97;;;3.50;;
64467;SDS011;50853;46.836;16.820;2022-07-22T11:56:42;5.97;;;2.92;;
64467;SDS011;50853;46.836;16.820;2022-07-22T11:59:11;8.90;;;3.38;;
64467;SDS011;50853;46.836;16.820;2022-07-22T12:01:38;11.65;;;3.50;;
64467;SDS011;50853;46.836;16.820;2022-07-22T12:04:06;4.95;;;3.30;;
64467;SDS011;50853;46.836;16.820;2022-07-22T12:06:34;4.22;;;3.08;;
64467;SDS011;50853;46.836;16.820;2022-07-22T12:09:11;5.97;;;3.25;;
64467;SDS011;50853;46.836;16.820;2022-07-22T12:11:43;6.25;;;3.30;;
64467;SDS011;50853;46.836;16.820;2022-07-22T12:16:37;17.33;;;3.70;;
64467;SDS011;50853;46.836;16.820;2022-07-22T12:27:02;10.13;;;2.95;;
64467;SDS011;50853;46.836;16.820;2022-07-22T12:29:30;5.13;;;2.90;;
64467;SDS011;50853;46.836;16.820;2022-07-22T12:32:08;6.45;;;2.88;;
64467;SDS011;50853;46.836;16.820;2022-07-22T12:37:29;7.05;;;2.88;;
64467;SDS011;50853;46.836;16.820;2022-07-22T12:42:31;6.78;;;2.63;;
64467;SDS011;50853;46.836;16.820;2022-07-22T12:45:09;6.13;;;3.00;;
64467;SDS011;50853;46.836;16.820;2022-07-22T12:47:44;4.72;;;2.75;;
64467;SDS011;50853;46.836;16.820;2022-07-22T12:58:11;4.43;;;2.80;;
64467;SDS011;50853;46.836;16.820;2022-07-22T13:00:39;5.15;;;3.00;;
64467;SDS011;50853;46.836;16.820;2022-07-22T13:03:09;4.93;;;3.03;;
64467;SDS011;50853;46.836;16.820;2022-07-22T13:05:35;6.05;;;2.80;;
64467;SDS011;50853;46.836;16.820;2022-07-22T13:10:27;4.72;;;3.05;;
64467;SDS011;50853;46.836;16.820;2022-07-22T13:12:53;7.45;;;3.20;;
64467;SDS011;50853;46.836;16.820;2022-07-22T13:15:20;5.32;;;3.35;;
64467;SDS011;50853;46.836;16.820;2022-07-22T13:17:47;7.45;;;3.05;;
64467;SDS011;50853;46.836;16.820;2022-07-22T13:20:15;7.07;;;3.45;;
64467;SDS011;50853;46.836;16.820;2022-07-22T13:22:45;5.57;;;2.90;;
64467;SDS011;50853;46.836;16.820;2022-07-22T13:25:12;4.57;;;3.00;;
64467;SDS011;50853;46.836;16.820;2022-07-22T13:27:38;8.27;;;3.58;;
64467;SDS011;50853;46.836;16.820;2022-07-22T13:30:04;5.93;;;3.13;;
64467;SDS011;50853;46.836;16.820;2022-07-22T13:32:31;7.60;;;3.08;;
64467;SDS011;50853;46.836;16.820;2022-07-22T13:34:57;10.80;;;3.10;;
64467;SDS011;50853;46.836;16.820;2022-07-22T13:39:49;6.22;;;3.00;;
64467;SDS011;50853;46.836;16.820;2022-07-22T13:44:45;5.53;;;3.03;;
64467;SDS011;50853;46.836;16.820;2022-07-22T13:47:11;5.93;;;2.90;;
64467;SDS011;50853;46.836;16.820;2022-07-22T13:49:37;5.03;;;3.28;;
64467;SDS011;50853;46.836;16.820;2022-07-22T13:54:29;17.42;;;3.22;;
64467;SDS011;50853;46.836;16.820;2022-07-22T13:56:55;5.45;;;2.67;;
64467;SDS011;50853;46.836;16.820;2022-07-22T14:01:48;5.47;;;2.55;;
64467;SDS011;50853;46.836;16.820;2022-07-22T14:04:14;5.00;;;3.05;;
64467;SDS011;50853;46.836;16.820;2022-07-22T14:09:05;7.57;;;3.10;;
64467;SDS011;50853;46.836;16.820;2022-07-22T14:13:57;7.72;;;3.53;;
64467;SDS011;50853;46.836;16.820;2022-07-22T14:19:07;6.57;;;2.78;;
64467;SDS011;50853;46.836;16.820;2022-07-22T14:21:39;8.80;;;3.10;;
64467;SDS011;50853;46.836;16.820;2022-07-22T14:24:06;4.78;;;2.80;;
64467;SDS011;50853;46.836;16.820;2022-07-22T14:26:33;4.32;;;2.80;;
64467;SDS011;50853;46.836;16.820;2022-07-22T14:29:00;7.88;;;2.90;;
64467;SDS011;50853;46.836;16.820;2022-07-22T14:31:29;8.00;;;2.72;;
64467;SDS011;50853;46.836;16.820;2022-07-22T14:33:56;8.65;;;2.80;;
64467;SDS011;50853;46.836;16.820;2022-07-22T14:36:22;11.32;;;3.35;;
64467;SDS011;50853;46.836;16.820;2022-07-22T14:38:47;8.43;;;3.00;;
64467;SDS011;50853;46.836;16.820;2022-07-22T14:41:15;5.05;;;2.90;;
64467;SDS011;50853;46.836;16.820;2022-07-22T14:43:41;10.70;;;3.08;;
64467;SDS011;50853;46.836;16.820;2022-07-22T14:46:07;5.20;;;2.75;;
64467;SDS011;50853;46.836;16.820;2022-07-22T14:48:35;5.47;;;2.72;;
64467;SDS011;50853;46.836;16.820;2022-07-22T14:51:02;7.38;;;3.30;;
64467;SDS011;50853;46.836;16.820;2022-07-22T14:53:28;10.90;;;2.78;;
64467;SDS011;50853;46.836;16.820;2022-07-22T14:55:54;7.28;;;3.17;;
64467;SDS011;50853;46.836;16.820;2022-07-22T14:58:20;5.63;;;3.05;;
64467;SDS011;50853;46.836;16.820;2022-07-22T15:00:46;8.45;;;3.47;;
64467;SDS011;50853;46.836;16.820;2022-07-22T15:03:12;5.50;;;3.00;;
64467;SDS011;50853;46.836;16.820;2022-07-22T15:05:38;5.32;;;2.63;;
64467;SDS011;50853;46.836;16.820;2022-07-22T15:08:06;8.60;;;2.70;;
64467;SDS011;50853;46.836;16.820;2022-07-22T15:10:32;3.83;;;2.60;;
64467;SDS011;50853;46.836;16.820;2022-07-22T15:12:58;9.18;;;3.08;;
64467;SDS011;50853;46.836;16.820;2022-07-22T15:15:24;5.53;;;3.03;;
64467;SDS011;50853;46.836;16.820;2022-07-22T15:17:50;4.82;;;3.08;;
64467;SDS011;50853;46.836;16.820;2022-07-22T15:20:15;4.95;;;2.70;;
64467;SDS011;50853;46.836;16.820;2022-07-22T15:22:41;8.65;;;3.08;;
64467;SDS011;50853;46.836;16.820;2022-07-22T15:25:07;11.77;;;3.13;;
64467;SDS011;50853;46.836;16.820;2022-07-22T15:27:33;5.95;;;3.25;;
64467;SDS011;50853;46.836;16.820;2022-07-22T15:30:04;6.68;;;2.83;;
64467;SDS011;50853;46.836;16.820;2022-07-22T15:32:31;8.57;;;3.10;;
64467;SDS011;50853;46.836;16.820;2022-07-22T15:34:56;11.18;;;2.75;;
64467;SDS011;50853;46.836;16.820;2022-07-22T15:37:23;11.55;;;2.75;;
64467;SDS011;50853;46.836;16.820;2022-07-22T15:39:49;6.40;;;2.50;;
64467;SDS011;50853;46.836;16.820;2022-07-22T15:42:15;4.43;;;2.75;;
64467;SDS011;50853;46.836;16.820;2022-07-22T15:44:41;7.63;;;2.47;;